Time;durP1;ratioP1;P1;durP2;ratioP2;P2;SDS_P1;SDS_P2;PMS_P1;PMS_P2;Temp;Humidity;BMP_temperature;BMP_pressure;BME280_temperature;BME280_humidity;BME280_pressure;Samples;Min_cycle;Max_cycle;Signal;HPM_P1;HPM_P2
2021/10/14 00:00:11;;;;;;;;;5.75;4.00;;;;;23.87;38.81;102693.25;5065847;28;46417;-68
2021/10/14 00:02:37;;;;;;;;;5.75;4.50;;;;;23.98;38.99;102722.31;5065504;28;45998;-67
2021/10/14 00:05:04;;;;;;;;;5.75;4.50;;;;;23.82;38.73;102691.88;5063780;28;45565;-67
2021/10/14 00:07:29;;;;;;;;;3.00;3.00;;;;;23.96;39.13;102717.16;5060501;28;45313;-68
2021/10/14 00:09:55;;;;;;;;;4.25;4.25;;;;;23.95;38.99;102723.44;5057777;28;45594;-67
2021/10/14 00:12:20;;;;;;;;;4.00;4.00;;;;;23.93;38.81;102725.41;5060333;28;45395;-68
2021/10/14 00:14:46;;;;;;;;;3.75;3.75;;;;;23.92;39.22;102720.22;5060451;28;45385;-67
2021/10/14 00:17:11;;;;;;;;;4.75;3.50;;;;;23.92;39.07;102718.41;5063516;28;45560;-68
2021/10/14 00:19:37;;;;;;;;;3.25;3.25;;;;;23.90;39.42;102717.72;5059875;28;46184;-68
2021/10/14 00:22:03;;;;;;;;;3.75;3.00;;;;;23.90;38.91;102717.72;5061432;28;45299;-67
2021/10/14 00:24:28;;;;;;;;;4.50;3.50;;;;;23.87;38.92;102699.41;5075018;28;45407;-68
2021/10/14 00:26:53;;;;;;;;;4.50;3.75;;;;;23.80;39.26;102699.19;5075963;28;45348;-67
2021/10/14 00:29:19;;;;;;;;;5.25;3.75;;;;;23.87;39.51;102709.19;5075858;28;46016;-68
2021/10/14 00:31:44;;;;;;;;;4.75;3.25;;;;;23.86;39.21;102716.38;5075720;28;45565;-68
2021/10/14 00:34:09;;;;;;;;;5.25;4.00;;;;;23.85;39.39;102706.69;5076947;28;45783;-67
2021/10/14 00:36:35;;;;;;;;;6.50;3.25;;;;;23.71;39.28;102690.25;5075501;28;45275;-67
2021/10/14 00:39:00;;;;;;;;;4.50;4.00;;;;;23.82;38.96;102715.81;5075571;28;47428;-67
2021/10/14 00:41:25;;;;;;;;;4.75;4.75;;;;;23.81;39.40;102718.63;5075705;28;45396;-67
2021/10/14 00:43:58;;;;;;;;;4.50;4.50;;;;;23.80;39.13;102706.31;5076135;28;45442;-68
2021/10/14 00:46:23;;;;;;;;;4.75;4.00;;;;;23.71;38.99;102700.88;5075566;28;45339;-68
2021/10/14 00:48:49;;;;;;;;;3.00;3.00;;;;;23.70;38.91;102701.88;5077467;28;47170;-67
2021/10/14 00:51:14;;;;;;;;;6.00;4.25;;;;;23.78;39.45;102716.25;5075450;28;45316;-68
2021/10/14 00:53:40;;;;;;;;;3.75;3.75;;;;;23.76;38.91;102699.63;5075756;28;45319;-68
2021/10/14 00:56:07;;;;;;;;;4.25;3.00;;;;;23.76;39.27;102708.41;5074195;28;45441;-67
2021/10/14 00:58:37;;;;;;;;;6.75;4.00;;;;;23.77;39.45;102696.81;5075433;28;46181;-67
2021/10/14 01:01:03;;;;;;;;;4.00;4.00;;;;;23.76;38.78;102704.94;5076255;28;45804;-67
2021/10/14 01:03:29;;;;;;;;;6.75;4.25;;;;;23.71;38.73;102692.91;5074473;28;45295;-68
2021/10/14 01:05:55;;;;;;;;;5.25;4.25;;;;;23.76;38.83;102694.31;5075158;28;45376;-67
2021/10/14 01:08:20;;;;;;;;;4.00;4.00;;;;;23.74;39.02;102695.28;5075351;28;45407;-67
2021/10/14 01:10:46;;;;;;;;;5.50;4.00;;;;;23.70;39.12;102685.94;5075268;28;45631;-67
2021/10/14 01:13:12;;;;;;;;;8.00;5.00;;;;;23.74;38.98;102692.63;5076450;28;45375;-68
2021/10/14 01:15:38;;;;;;;;;4.00;4.00;;;;;23.63;38.66;102669.72;5074582;28;45571;-68
2021/10/14 01:18:04;;;;;;;;;6.00;5.75;;;;;23.74;39.07;102694.44;5074799;28;46371;-68
2021/10/14 01:20:29;;;;;;;;;5.00;4.00;;;;;23.71;38.73;102692.91;5075172;28;45570;-68
2021/10/14 01:22:55;;;;;;;;;3.25;3.25;;;;;23.74;38.96;102689.13;5075609;28;45372;-67
2021/10/14 01:25:20;;;;;;;;;4.00;4.00;;;;;23.72;39.02;102686.63;5074571;28;45377;-68
2021/10/14 01:27:49;;;;;;;;;6.00;5.00;;;;;23.72;38.64;102683.97;5077079;28;45405;-68
2021/10/14 01:30:15;;;;;;;;;3.00;3.00;;;;;23.73;38.82;102684.81;5074667;28;45608;-67
2021/10/14 01:32:40;;;;;;;;;5.00;3.50;;;;;23.67;39.41;102659.66;5074428;28;45565;-68
2021/10/14 01:35:06;;;;;;;;;4.00;4.00;;;;;23.67;39.04;102664.97;5055235;28;45477;-67
2021/10/14 01:37:32;;;;;;;;;4.00;4.00;;;;;23.71;39.30;102674.31;5074800;28;46841;-68
2021/10/14 01:39:58;;;;;;;;;4.50;4.50;;;;;23.71;38.69;102665.50;5076776;28;45414;-68
2021/10/14 01:42:24;;;;;;;;;5.75;5.25;;;;;23.61;39.05;102653.09;5074961;28;45493;-68
2021/10/14 01:44:49;;;;;;;;;4.00;4.00;;;;;23.67;38.95;102658.81;5074448;28;45562;-67
2021/10/14 01:47:15;;;;;;;;;6.50;5.00;;;;;23.69;38.97;102667.47;5074744;28;46098;-68
2021/10/14 01:49:40;;;;;;;;;6.00;6.00;;;;;23.69;38.68;102662.16;5074649;28;45407;-68
2021/10/14 01:52:05;;;;;;;;;3.75;3.00;;;;;23.68;38.93;102663.16;5076167;28;45292;-67
2021/10/14 01:54:31;;;;;;;;;4.75;4.25;;;;;23.68;39.33;102663.16;5073978;28;45273;-68
2021/10/14 01:56:56;;;;;;;;;6.00;4.50;;;;;23.68;39.08;102663.16;5073776;28;45332;-67
2021/10/14 01:59:21;;;;;;;;;3.75;3.75;;;;;23.67;38.99;102664.97;5054345;28;47023;-68
2021/10/14 02:01:47;;;;;;;;;5.00;5.00;;;;;23.66;39.34;102663.28;5074509;27;45523;-68
2021/10/14 02:04:12;;;;;;;;;5.00;5.00;;;;;23.65;38.81;102666.94;5057089;28;45628;-67
2021/10/14 02:06:37;;;;;;;;;4.75;4.75;;;;;23.65;38.77;102674.06;5075802;28;45366;-68
2021/10/14 02:09:03;;;;;;;;;4.75;4.00;;;;;23.64;39.11;102665.25;5074247;28;45406;-68
2021/10/14 02:11:28;;;;;;;;;4.25;4.25;;;;;23.57;39.07;102665.00;5074568;28;45384;-67
2021/10/14 02:13:54;;;;;;;;;4.75;4.75;;;;;23.60;38.87;102658.56;5072593;28;45226;-68
2021/10/14 02:16:19;;;;;;;;;5.00;5.00;;;;;23.63;39.29;102652.94;5072519;28;47369;-68
2021/10/14 02:18:44;;;;;;;;;4.75;4.25;;;;;23.63;39.00;102658.25;5075350;28;45287;-68
2021/10/14 02:21:10;;;;;;;;;5.75;4.25;;;;;23.56;39.00;102652.69;5074352;28;45482;-68
2021/10/14 02:23:35;;;;;;;;;3.00;3.00;;;;;23.60;39.15;102663.88;5074378;28;45462;-67
2021/10/14 02:26:01;;;;;;;;;4.00;4.00;;;;;23.63;38.74;102658.25;5074313;28;45308;-67
2021/10/14 02:28:26;;;;;;;;;6.00;5.00;;;;;23.65;39.17;102666.09;5056834;28;45531;-67
2021/10/14 02:30:52;;;;;;;;;5.50;5.00;;;;;23.65;38.52;102658.13;5076068;28;45343;-68
2021/10/14 02:33:17;;;;;;;;;4.00;4.00;;;;;23.64;39.00;102654.63;5072445;28;45455;-68
2021/10/14 02:35:42;;;;;;;;;6.25;5.50;;;;;23.61;39.22;102660.22;5073886;28;45356;-68
2021/10/14 02:38:08;;;;;;;;;3.00;3.00;;;;;23.65;38.91;102663.44;5074057;28;45470;-67
2021/10/14 02:40:33;;;;;;;;;3.75;3.00;;;;;23.60;39.07;102664.69;5073794;28;45450;-68
2021/10/14 02:42:59;;;;;;;;;4.25;3.75;;;;;23.65;38.52;102666.09;5075822;28;45383;-67
2021/10/14 02:45:24;;;;;;;;;4.50;3.25;;;;;23.61;38.59;102654.91;5073892;28;46175;-68
2021/10/14 02:47:50;;;;;;;;;3.00;3.00;;;;;23.65;38.46;102658.13;5073854;28;45628;-68
2021/10/14 02:50:15;;;;;;;;;6.75;4.00;;;;;23.51;38.87;102642.53;5073881;28;45390;-68
2021/10/14 02:52:40;;;;;;;;;4.75;3.75;;;;;23.62;38.97;102652.13;5072382;28;45356;-68
2021/10/14 02:55:06;;;;;;;;;5.00;5.00;;;;;23.61;39.06;102653.09;5074563;28;45550;-67
2021/10/14 02:57:32;;;;;;;;;4.75;4.00;;;;;23.60;38.91;102647.94;5073985;28;45332;-67
2021/10/14 02:59:57;;;;;;;;;7.00;4.25;;;;;23.62;38.47;102651.28;5073594;28;45316;-68
2021/10/14 03:02:22;;;;;;;;;4.00;4.00;;;;;23.64;38.81;102659.94;5073621;28;45581;-67
2021/10/14 03:04:48;;;;;;;;;7.50;3.50;;;;;23.64;38.75;102657.28;5072727;28;46129;-68
2021/10/14 03:07:13;;;;;;;;;4.50;4.00;;;;;23.63;38.45;102663.56;5073824;28;45516;-67
2021/10/14 03:09:39;;;;;;;;;6.00;4.00;;;;;23.53;38.95;102653.00;5076370;28;45248;-68
2021/10/14 03:12:04;;;;;;;;;3.00;3.00;;;;;23.63;38.41;102668.88;5075412;28;45429;-68
2021/10/14 03:14:30;;;;;;;;;4.50;4.50;;;;;23.62;38.38;102680.50;5077119;28;46035;-67
2021/10/14 03:16:55;;;;;;;;;3.00;3.00;;;;;23.62;38.87;102677.84;5077171;28;45391;-68
2021/10/14 03:19:20;;;;;;;;;8.50;6.00;;;;;23.48;38.58;102656.06;5077325;28;45541;-67
2021/10/14 03:21:46;;;;;;;;;5.25;4.25;;;;;23.57;38.64;102667.69;5079072;28;45548;-67
2021/10/14 03:24:11;;;;;;;;;5.00;4.25;;;;;23.57;39.09;102669.50;5076920;28;46344;-68
2021/10/14 03:26:36;;;;;;;;;6.75;4.50;;;;;23.59;39.07;102670.16;5076502;28;45368;-67
2021/10/14 03:29:02;;;;;;;;;6.00;5.50;;;;;23.49;38.88;102662.22;5077225;28;45366;-68
2021/10/14 03:31:27;;;;;;;;;3.50;3.00;;;;;23.59;38.35;102675.50;5076182;28;45319;-68
2021/10/14 03:33:53;;;;;;;;;4.50;4.50;;;;;23.59;38.57;102672.84;5078149;28;46167;-67
2021/10/14 03:36:18;;;;;;;;;5.50;5.00;;;;;23.53;38.88;102668.94;5076568;28;45486;-67
2021/10/14 03:38:43;;;;;;;;;6.25;4.75;;;;;23.57;38.97;102673.00;5076998;28;45487;-66
2021/10/14 03:41:09;;;;;;;;;7.00;4.50;;;;;23.58;38.62;102673.78;5076439;28;45312;-68
2021/10/14 03:43:34;;;;;;;;;5.50;4.00;;;;;23.57;38.35;102673.00;5076863;28;45446;-68
2021/10/14 03:45:59;;;;;;;;;4.00;4.00;;;;;23.57;38.70;102670.34;5078794;28;45395;-66
2021/10/14 03:48:25;;;;;;;;;5.00;5.00;;;;;23.51;38.46;102655.81;5076833;28;45486;-67
2021/10/14 03:50:50;;;;;;;;;4.00;4.00;;;;;23.52;38.73;102665.44;5075049;28;45534;-68
2021/10/14 03:53:15;;;;;;;;;6.00;5.75;;;;;23.57;38.73;102675.66;5076380;28;45956;-68
2021/10/14 03:55:41;;;;;;;;;4.50;3.75;;;;;23.59;38.17;102678.16;5076454;28;45490;-68
2021/10/14 03:58:06;;;;;;;;;6.00;4.00;;;;;23.57;38.86;102675.66;5078277;28;45374;-68
2021/10/14 04:00:31;;;;;;;;;6.50;4.50;;;;;23.58;38.49;102671.13;5076744;28;45351;-68
2021/10/14 04:02:56;;;;;;;;;3.00;3.00;;;;;23.57;38.17;102669.50;5076309;28;46915;-68
2021/10/14 04:05:22;;;;;;;;;5.00;5.00;;;;;23.58;38.72;102671.13;5076392;28;45451;-67
2021/10/14 04:07:47;;;;;;;;;7.00;4.50;;;;;23.57;38.79;102673.00;5076531;28;45523;-67
2021/10/14 04:10:14;;;;;;;;;4.25;3.50;;;;;23.48;38.23;102657.88;5076934;28;45542;-68
2021/10/14 04:12:40;;;;;;;;;3.75;3.75;;;;;23.58;38.36;102671.97;5075670;28;47043;-67
2021/10/14 04:15:05;;;;;;;;;5.50;4.00;;;;;23.58;38.25;102671.13;5075774;28;45264;-67
2021/10/14 04:17:31;;;;;;;;;5.00;5.00;;;;;23.51;38.18;102671.75;5076518;28;47399;-68
2021/10/14 04:19:56;;;;;;;;;4.75;4.75;;;;;23.59;38.80;102676.31;5075781;28;45434;-68
2021/10/14 04:22:22;;;;;;;;;3.25;3.25;;;;;23.58;38.85;102673.78;5076118;28;47044;-67
2021/10/14 04:24:48;;;;;;;;;5.00;5.00;;;;;23.57;38.46;102680.97;5059356;28;45464;-67
2021/10/14 04:27:15;;;;;;;;;6.00;4.00;;;;;23.57;38.59;102675.66;5076151;28;45450;-68
2021/10/14 04:29:40;;;;;;;;;4.00;4.00;;;;;23.57;38.29;102680.13;5074499;28;45681;-68
2021/10/14 04:32:08;;;;;;;;;5.00;5.00;;;;;23.57;38.51;102677.47;5075442;28;53315;-68
2021/10/14 04:34:35;;;;;;;;;5.50;5.00;;;;;23.56;38.21;102676.63;5076102;28;45565;-68
2021/10/14 04:37:08;;;;;;;;;4.50;4.50;;;;;23.56;38.22;102683.75;5077957;28;45532;-67
2021/10/14 04:39:35;;;;;;;;;5.00;4.00;;;;;23.55;38.19;102676.78;5076211;28;45443;-68
2021/10/14 04:42:01;;;;;;;;;3.25;3.25;;;;;23.54;38.51;102670.63;5075542;28;46383;-67
2021/10/14 04:44:27;;;;;;;;;5.50;5.00;;;;;23.54;38.74;102680.41;5075608;28;45431;-68
2021/10/14 04:46:52;;;;;;;;;6.75;4.75;;;;;23.54;38.68;102677.75;5076077;28;45881;-68
2021/10/14 04:49:17;;;;;;;;;5.25;5.25;;;;;23.55;38.37;102676.78;5075812;28;45683;-67
2021/10/14 04:51:43;;;;;;;;;4.00;4.00;;;;;23.54;38.57;102677.75;5075430;28;45348;-68
2021/10/14 04:54:08;;;;;;;;;5.75;5.75;;;;;23.45;38.34;102666.97;5075148;28;45525;-68
2021/10/14 04:56:33;;;;;;;;;6.50;5.00;;;;;23.54;38.71;102683.06;5075581;28;45395;-67
2021/10/14 04:58:59;;;;;;;;;6.00;4.25;;;;;23.51;38.36;102681.53;5075647;28;45477;-68
2021/10/14 05:01:24;;;;;;;;;2.75;2.75;;;;;23.52;38.45;102684.03;5075224;28;47348;-67
2021/10/14 05:03:49;;;;;;;;;5.25;3.00;;;;;23.52;38.50;102680.56;5077077;28;48806;-68
2021/10/14 05:06:15;;;;;;;;;7.50;4.50;;;;;23.44;38.51;102661.81;5075558;28;45407;-67
2021/10/14 05:08:40;;;;;;;;;5.75;4.25;;;;;23.43;38.28;102658.31;5073395;28;45383;-67
2021/10/14 05:11:12;;;;;;;;;5.25;5.00;;;;;23.52;38.30;102672.59;5053705;28;46342;-68
2021/10/14 05:13:39;;;;;;;;;4.50;4.50;;;;;23.42;38.27;102658.47;5075299;28;45500;-68
2021/10/14 05:16:05;;;;;;;;;5.25;5.25;;;;;23.49;38.23;102671.06;5076811;28;45312;-68
2021/10/14 05:18:30;;;;;;;;;5.25;4.00;;;;;23.50;38.24;102675.38;5073797;28;45575;-68
2021/10/14 05:20:55;;;;;;;;;7.00;3.75;;;;;23.51;38.65;102677.06;5074852;28;46099;-68
2021/10/14 05:23:21;;;;;;;;;5.00;4.00;;;;;23.51;38.66;102674.41;5074757;28;45250;-68
2021/10/14 05:25:46;;;;;;;;;6.00;4.75;;;;;23.50;38.63;102675.38;5075375;28;45421;-67
2021/10/14 05:28:11;;;;;;;;;6.00;6.00;;;;;23.47;38.39;102675.63;5076157;28;45281;-68
2021/10/14 05:30:37;;;;;;;;;4.00;4.00;;;;;23.47;38.13;102665.00;5075960;28;45225;-68
2021/10/14 05:33:02;;;;;;;;;5.00;5.00;;;;;23.52;38.09;102672.59;5074193;28;45229;-67
2021/10/14 05:35:28;;;;;;;;;4.00;4.00;;;;;23.52;38.31;102669.94;5074863;28;45476;-67
2021/10/14 05:37:53;;;;;;;;;4.25;4.25;;;;;23.52;38.67;102669.94;5074944;28;45614;-66
2021/10/14 05:40:18;;;;;;;;;5.00;5.00;;;;;23.52;38.22;102667.28;5074746;28;45439;-67
2021/10/14 05:42:44;;;;;;;;;4.75;4.75;;;;;23.52;38.72;102665.44;5079716;27;45378;-67
2021/10/14 05:45:10;;;;;;;;;5.50;4.00;;;;;23.45;38.50;102661.66;5074378;28;45450;-66
2021/10/14 05:47:35;;;;;;;;;5.25;5.25;;;;;23.42;38.98;102661.13;5074098;27;45483;-65
2021/10/14 05:50:01;;;;;;;;;4.25;4.25;;;;;23.51;39.03;102674.41;5074573;28;45403;-66
2021/10/14 05:52:26;;;;;;;;;3.50;3.50;;;;;23.40;38.54;102651.47;5074480;28;45708;-67
2021/10/14 05:54:52;;;;;;;;;6.00;5.00;;;;;23.50;38.65;102670.06;5076148;28;45325;-66
2021/10/14 05:57:17;;;;;;;;;9.25;5.00;;;;;23.50;38.82;102670.06;5074444;28;45409;-66
2021/10/14 05:59:42;;;;;;;;;3.00;3.00;;;;;23.50;39.15;102672.72;5074513;28;45431;-66
2021/10/14 06:02:08;;;;;;;;;5.50;4.25;;;;;23.49;38.63;102671.06;5074401;28;45498;-65
2021/10/14 06:04:33;;;;;;;;;4.25;4.00;;;;;23.50;39.33;102661.25;5074723;28;45435;-67
2021/10/14 06:06:58;;;;;;;;;5.25;4.75;;;;;23.51;38.66;102666.44;5075620;28;45402;-66
2021/10/14 06:09:23;;;;;;;;;5.75;5.75;;;;;23.50;38.77;102666.56;5074244;28;45505;-66
2021/10/14 06:11:49;;;;;;;;;4.25;3.00;;;;;23.51;39.05;102666.44;5074293;28;45535;-65
2021/10/14 06:14:15;;;;;;;;;7.50;6.25;;;;;23.50;38.50;102664.75;5073836;28;45456;-67
2021/10/14 06:16:40;;;;;;;;;6.25;5.00;;;;;23.47;38.65;102670.31;5074486;28;45427;-67
2021/10/14 06:19:06;;;;;;;;;6.00;6.00;;;;;23.44;38.47;102667.97;5074845;28;45710;-67
2021/10/14 06:21:31;;;;;;;;;6.00;6.00;;;;;23.45;38.93;102666.13;5073995;28;45735;-67
2021/10/14 06:23:56;;;;;;;;;5.25;5.25;;;;;23.45;39.28;102672.28;5073893;28;45387;-67
2021/10/14 06:26:22;;;;;;;;;5.75;5.75;;;;;23.45;39.24;102668.78;5072580;28;45537;-66
2021/10/14 06:28:47;;;;;;;;;5.50;5.00;;;;;23.46;38.91;102660.69;5074012;28;45519;-66
2021/10/14 06:31:13;;;;;;;;;5.00;5.00;;;;;23.41;39.17;102662.94;5075308;28;46083;-67
2021/10/14 06:33:38;;;;;;;;;5.50;5.00;;;;;23.45;39.23;102669.63;5073414;28;45398;-64
2021/10/14 06:36:04;;;;;;;;;8.25;6.50;;;;;23.45;39.10;102664.31;5074094;28;45471;-67
2021/10/14 06:38:29;;;;;;;;;5.25;5.25;;;;;23.46;38.67;102667.81;5073788;28;46030;-66
2021/10/14 06:40:54;;;;;;;;;5.50;5.25;;;;;23.34;38.75;102645.91;5074139;28;45471;-67
2021/10/14 06:43:20;;;;;;;;;3.75;3.75;;;;;23.45;38.81;102660.81;5074012;28;45780;-67
2021/10/14 06:45:45;;;;;;;;;6.75;5.75;;;;;23.47;38.79;102666.84;5075942;28;45460;-67
2021/10/14 06:48:10;;;;;;;;;6.75;4.75;;;;;23.48;38.78;102669.34;5071817;28;45218;-65
2021/10/14 06:50:36;;;;;;;;;5.00;5.00;;;;;23.48;38.63;102669.34;5073566;28;45288;-67
2021/10/14 06:53:03;;;;;;;;;6.25;5.25;;;;;23.41;38.57;102652.31;5073969;28;45348;-67
2021/10/14 06:55:28;;;;;;;;;7.25;6.00;;;;;23.48;38.84;102664.03;5074006;28;45584;-67
2021/10/14 06:57:54;;;;;;;;;6.00;5.00;;;;;23.45;38.54;102655.50;5057356;28;47352;-66
2021/10/14 07:00:22;;;;;;;;;8.00;6.25;;;;;23.48;38.51;102666.69;5073401;28;45409;-67
2021/10/14 07:02:48;;;;;;;;;6.25;4.75;;;;;23.49;38.88;102664.88;5073517;28;45715;-67
2021/10/14 07:05:14;;;;;;;;;5.75;4.25;;;;;23.49;38.73;102660.44;5071989;28;45293;-66
2021/10/14 07:07:39;;;;;;;;;8.50;7.00;;;;;23.49;38.45;102657.78;5055544;28;45490;-67
2021/10/14 07:10:07;;;;;;;;;4.00;4.00;;;;;23.46;38.83;102651.88;5056747;28;45318;-66
2021/10/14 07:12:33;;;;;;;;;7.00;5.50;;;;;23.50;38.33;102661.25;5074236;28;45404;-66
2021/10/14 07:14:59;;;;;;;;;5.50;5.50;;;;;23.47;38.45;102659.69;5073537;28;45435;-68
2021/10/14 07:17:25;;;;;;;;;5.50;5.50;;;;;23.39;38.45;102643.66;5073168;28;46126;-66
2021/10/14 07:19:51;;;;;;;;;6.50;4.50;;;;;23.49;38.56;102660.44;5073353;28;45452;-66
2021/10/14 07:22:16;;;;;;;;;5.00;5.00;;;;;23.45;39.04;102653.69;5073761;28;45332;-65
2021/10/14 07:24:42;;;;;;;;;5.25;5.00;;;;;23.42;39.01;102646.00;5073179;28;45464;-66
2021/10/14 07:27:10;;;;;;;;;10.25;6.25;;;;;23.48;38.42;102656.06;5071538;28;46202;-66
2021/10/14 07:29:36;;;;;;;;;7.25;7.00;;;;;23.47;39.14;102650.91;5073067;27;45634;-65
2021/10/14 07:32:02;;;;;;;;;5.25;5.00;;;;;23.38;38.51;102639.31;5073006;28;45397;-65
2021/10/14 07:34:28;;;;;;;;;6.00;4.75;;;;;23.47;38.64;102656.22;5073490;28;45478;-65
2021/10/14 07:36:53;;;;;;;;;3.75;3.75;;;;;23.47;38.99;102656.22;5074871;28;45406;-65
2021/10/14 07:39:20;;;;;;;;;6.00;6.00;;;;;23.47;38.41;102658.88;5073140;28;45582;-67
2021/10/14 07:41:46;;;;;;;;;7.25;6.00;;;;;23.46;38.86;102650.06;5073153;28;45241;-66
2021/10/14 07:44:13;;;;;;;;;6.25;6.25;;;;;23.38;38.57;102641.97;5056121;28;45233;-67
2021/10/14 07:46:40;;;;;;;;;6.25;6.00;;;;;23.46;38.71;102652.72;5072623;28;46086;-67
2021/10/14 07:49:06;;;;;;;;;5.00;5.00;;;;;23.46;38.95;102658.03;5074482;28;45409;-67
2021/10/14 07:51:32;;;;;;;;;7.50;7.50;;;;;23.32;38.41;102638.06;5073520;28;45451;-67
2021/10/14 07:53:57;;;;;;;;;6.00;6.00;;;;;23.45;38.69;102652.84;5053190;28;45503;-66
2021/10/14 07:56:22;;;;;;;;;7.25;6.25;;;;;23.46;38.56;102657.19;5075025;28;46303;-67
2021/10/14 07:58:49;;;;;;;;;5.75;5.75;;;;;23.46;38.40;102652.72;5076501;28;45427;-67
2021/10/14 08:01:14;;;;;;;;;6.75;6.75;;;;;23.45;38.54;102645.72;5076612;28;45348;-65
2021/10/14 08:03:40;;;;;;;;;7.00;5.25;;;;;23.36;38.91;102634.16;5077916;28;45476;-67
2021/10/14 08:06:05;;;;;;;;;6.00;6.00;;;;;23.45;39.08;102643.06;5074686;28;45915;-66
2021/10/14 08:08:31;;;;;;;;;6.00;6.00;;;;;23.45;38.67;102642.22;5076061;28;45387;-66
2021/10/14 08:10:56;;;;;;;;;4.50;4.50;;;;;23.38;38.67;102628.69;5076436;28;45538;-67
2021/10/14 08:13:22;;;;;;;;;5.25;5.25;;;;;23.45;38.40;102640.41;5076379;28;45369;-67
2021/10/14 08:15:50;;;;;;;;;6.00;6.00;;;;;23.44;38.91;102627.28;5077402;28;46765;-65
2021/10/14 08:18:21;;;;;;;;;6.75;6.75;;;;;23.46;38.40;102635.94;5076178;28;45541;-67
2021/10/14 08:20:47;;;;;;;;;6.25;6.25;;;;;23.40;38.44;102632.03;5076201;28;45320;-67
2021/10/14 08:23:13;;;;;;;;;5.25;5.25;;;;;23.43;38.41;102639.72;5074501;28;45463;-66
2021/10/14 08:25:38;;;;;;;;;5.25;5.25;;;;;23.38;38.43;102631.34;5075718;28;45493;-65
2021/10/14 08:28:04;;;;;;;;;4.25;4.25;;;;;23.41;38.65;102639.03;5077444;28;45273;-67
2021/10/14 08:30:30;;;;;;;;;5.00;5.00;;;;;23.34;38.68;102629.97;5075943;28;45443;-66
2021/10/14 08:32:55;;;;;;;;;7.25;6.50;;;;;23.48;38.52;102647.25;5076151;28;45480;-67
2021/10/14 08:35:21;;;;;;;;;8.75;7.00;;;;;23.49;38.13;102640.97;5075775;28;46137;-66
2021/10/14 08:37:47;;;;;;;;;8.00;7.00;;;;;23.49;38.46;102651.59;5075787;28;45590;-66
2021/10/14 08:40:14;;;;;;;;;6.75;5.50;;;;;23.50;38.45;102638.19;5076298;28;45379;-66
2021/10/14 08:42:40;;;;;;;;;6.25;6.00;;;;;23.40;38.38;102632.88;5077216;28;45455;-66
2021/10/14 08:45:08;;;;;;;;;8.00;6.75;;;;;23.43;38.06;102636.22;5073637;28;47192;-66
2021/10/14 08:47:33;;;;;;;;;11.50;8.00;;;;;23.50;38.63;102643.50;5072227;28;45426;-66
2021/10/14 08:49:59;;;;;;;;;9.25;7.75;;;;;23.49;38.48;102636.53;5061788;28;45289;-66
2021/10/14 08:52:25;;;;;;;;;6.25;5.75;;;;;23.50;38.12;102643.50;5075582;28;45602;-66
2021/10/14 08:54:50;;;;;;;;;7.00;5.75;;;;;23.44;38.81;102627.28;5077439;28;45329;-66
2021/10/14 08:57:16;;;;;;;;;7.75;7.75;;;;;23.51;38.24;102639.03;5075337;28;45332;-66
2021/10/14 08:59:41;;;;;;;;;10.75;7.00;;;;;23.54;38.28;102640.56;5075419;28;45371;-66
2021/10/14 09:02:14;;;;;;;;;7.00;7.00;;;;;23.54;38.36;102640.56;5073852;28;45472;-66
2021/10/14 09:04:57;;;;;;;;;5.50;5.25;;;;;23.49;38.23;102630.34;5075132;28;46085;-66
2021/10/14 09:07:24;;;;;;;;;7.50;7.00;;;;;23.52;38.25;102638.88;5073998;28;45556;-66
2021/10/14 09:09:50;;;;;;;;;6.75;5.50;;;;;23.55;38.26;102645.69;5077109;28;45295;-66
2021/10/14 09:12:17;;;;;;;;;7.00;6.25;;;;;23.43;38.67;102621.13;5075183;28;45504;-66
2021/10/14 09:14:56;;;;;;;;;8.50;8.50;;;;;23.56;38.37;102641.22;5074856;28;45388;-66
2021/10/14 09:17:36;;;;;;;;;8.25;6.50;;;;;23.56;38.21;102631.44;5074848;28;45457;-67
2021/10/14 09:20:20;;;;;;;;;6.00;5.00;;;;;23.55;38.38;102629.75;5075262;28;45337;-66
2021/10/14 09:22:59;;;;;;;;;8.75;6.75;;;;;23.57;38.55;102634.94;5061281;28;45370;-66
2021/10/14 09:25:29;;;;;;;;;8.25;6.75;;;;;23.57;38.03;102632.28;5074981;28;45558;-66
2021/10/14 09:28:18;;;;;;;;;8.25;6.00;;;;;23.48;38.23;102624.19;5076410;28;45241;-66
2021/10/14 09:30:46;;;;;;;;;7.25;7.25;;;;;23.57;38.42;102630.47;5074826;28;45514;-66
2021/10/14 09:33:37;;;;;;;;;6.75;6.75;;;;;23.59;38.54;102627.66;5074488;28;45606;-66
2021/10/14 09:36:15;;;;;;;;;7.25;7.00;;;;;23.59;38.17;102627.66;5074610;28;46225;-66
2021/10/14 09:38:42;;;;;;;;;8.25;7.25;;;;;23.59;38.66;102627.66;5074748;28;45512;-66
2021/10/14 09:41:10;;;;;;;;;6.25;6.25;;;;;23.60;38.21;102626.69;5073169;28;45491;-66
2021/10/14 09:43:36;;;;;;;;;7.00;7.00;;;;;23.60;38.19;102626.69;5074566;28;45246;-66
2021/10/14 09:46:04;;;;;;;;;7.00;6.00;;;;;23.56;38.56;102615.50;5076380;28;46112;-66
2021/10/14 09:48:30;;;;;;;;;8.00;8.00;;;;;23.58;38.41;102615.34;5074945;28;45433;-66
2021/10/14 09:50:55;;;;;;;;;9.00;9.00;;;;;23.62;38.27;102614.94;5074172;28;45467;-66
2021/10/14 09:53:22;;;;;;;;;7.50;5.00;;;;;23.55;38.13;102599.72;5055014;28;45369;-66
2021/10/14 09:55:49;;;;;;;;;7.50;7.25;;;;;23.63;38.59;102616.59;5074799;28;45826;-66
2021/10/14 09:58:15;;;;;;;;;6.00;6.00;;;;;23.54;38.14;102593.56;5074163;28;45450;-66
2021/10/14 10:00:42;;;;;;;;;7.25;6.75;;;;;23.59;38.56;102593.97;5075849;27;45335;-66
2021/10/14 10:03:11;;;;;;;;;7.50;6.75;;;;;23.64;38.29;102604.13;5072982;28;45399;-66
2021/10/14 10:05:38;;;;;;;;;7.50;7.50;;;;;23.57;38.41;102595.09;5056244;28;45412;-66
2021/10/14 10:08:08;;;;;;;;;7.75;6.75;;;;;23.61;38.09;102592.00;5074226;28;45210;-66
2021/10/14 10:10:36;;;;;;;;;6.75;6.00;;;;;23.65;37.88;102592.53;5058616;28;45448;-66
2021/10/14 10:13:02;;;;;;;;;9.75;8.25;;;;;23.66;38.21;102593.34;5075804;28;45438;-66
2021/10/14 10:15:45;;;;;;;;;6.75;6.00;;;;;23.65;37.88;102587.22;5074304;28;47482;-67
2021/10/14 10:18:26;;;;;;;;;7.00;7.00;;;;;23.67;38.58;102581.75;5073570;28;45441;-66
2021/10/14 10:20:51;;;;;;;;;7.50;5.00;;;;;23.66;38.21;102582.72;5072979;28;45419;-66
2021/10/14 10:23:43;;;;;;;;;7.00;7.00;;;;;23.66;38.29;102577.41;5072912;27;45569;-66
2021/10/14 10:26:36;;;;;;;;;8.50;8.00;;;;;23.66;38.54;102569.44;5059863;28;47082;-66
2021/10/14 10:29:16;;;;;;;;;9.25;7.50;;;;;23.66;38.37;102570.28;5074118;28;45407;-66
2021/10/14 10:31:56;;;;;;;;;8.00;7.00;;;;;23.67;38.31;102560.50;5059360;28;45487;-66
2021/10/14 10:37:15;;;;;;;;;7.75;6.25;;;;;23.66;38.04;102551.69;5071786;28;45356;-66
2021/10/14 10:39:47;;;;;;;;;6.75;6.50;;;;;23.65;38.59;102555.34;5075463;28;45403;-66
2021/10/14 10:42:28;;;;;;;;;8.00;7.00;;;;;23.65;37.88;102550.03;5071544;28;45655;-66
2021/10/14 10:44:54;;;;;;;;;7.75;7.75;;;;;23.65;38.38;102543.88;5073902;28;45571;-66
2021/10/14 10:48:07;;;;;;;;;7.50;7.25;;;;;23.66;38.28;102548.19;5053863;28;47662;-66
2021/10/14 10:50:32;;;;;;;;;9.00;6.75;;;;;23.65;38.04;102547.38;5064375;28;45581;-66
2021/10/14 10:53:01;;;;;;;;;6.00;5.50;;;;;23.64;38.59;102543.03;5073871;28;45264;-66
2021/10/14 10:55:26;;;;;;;;;10.00;7.00;;;;;23.65;38.62;102538.56;5073686;28;46379;-66
2021/10/14 10:57:53;;;;;;;;;8.50;6.75;;;;;23.62;38.71;102540.53;5075412;28;46244;-66
2021/10/14 11:00:20;;;;;;;;;6.00;6.00;;;;;23.50;38.29;102517.78;5071939;28;45370;-66
2021/10/14 11:03:05;;;;;;;;;11.50;8.50;;;;;23.65;38.61;102534.09;5073354;28;45428;-66
2021/10/14 11:05:55;;;;;;;;;6.25;5.75;;;;;23.65;38.50;102528.75;5073295;28;45387;-66
2021/10/14 11:08:22;;;;;;;;;8.50;7.00;;;;;23.64;38.59;102524.44;5073496;28;45351;-66
2021/10/14 11:11:02;;;;;;;;;5.75;5.75;;;;;23.58;38.00;102520.53;5073261;28;45490;-66
2021/10/14 11:13:30;;;;;;;;;9.00;9.00;;;;;23.65;37.94;102528.75;5073770;28;45277;-66
2021/10/14 11:15:57;;;;;;;;;8.00;8.00;;;;;23.65;38.16;102517.28;5075401;28;45459;-66
2021/10/14 11:18:27;;;;;;;;;9.50;8.00;;;;;23.65;37.94;102522.59;5073078;28;47248;-66
2021/10/14 11:21:02;;;;;;;;;9.00;6.50;;;;;23.55;38.16;102504.09;5071844;28;45618;-66
2021/10/14 11:23:30;;;;;;;;;9.00;8.50;;;;;23.62;38.61;102513.97;5073248;28;45258;-66
2021/10/14 11:25:59;;;;;;;;;7.25;6.75;;;;;23.60;38.03;102510.59;5073113;28;45367;-66